createdAt,value
2019-02-18T00:04:45.259Z,2.70
2019-02-18T00:09:50.179Z,2.50
2019-02-18T00:14:55.379Z,2.30
2019-02-18T00:20:00.408Z,2.30
2019-02-18T00:25:05.311Z,2.30
2019-02-18T00:30:10.724Z,2.20
2019-02-18T00:35:17.081Z,2.20
2019-02-18T00:40:22.082Z,2.20
2019-02-18T00:45:26.978Z,2.10
2019-02-18T00:50:32.635Z,2.00
2019-02-18T00:55:37.878Z,2.00
2019-02-18T01:00:42.818Z,2.10
2019-02-18T01:05:47.032Z,1.90
2019-02-18T01:10:50.526Z,1.90
2019-02-18T01:15:53.827Z,1.90
2019-02-18T01:20:57.597Z,1.70
2019-02-18T01:26:02.951Z,1.70
2019-02-18T01:31:08.003Z,1.80
2019-02-18T01:36:12.161Z,1.60
2019-02-18T01:41:16.250Z,1.60
2019-02-18T01:46:21.588Z,1.70
2019-02-18T01:51:25.727Z,1.50
2019-02-18T01:56:29.945Z,1.50
2019-02-18T02:01:33.997Z,1.50
2019-02-18T02:06:37.393Z,1.50
2019-02-18T02:11:41.462Z,1.50
2019-02-18T02:16:45.619Z,1.40
2019-02-18T02:21:49.659Z,1.30
2019-02-18T02:27:13.345Z,1.30
2019-02-18T02:32:18.507Z,1.30
2019-02-18T02:37:23.589Z,1.20
2019-02-18T02:42:28.747Z,1.30
2019-02-18T02:47:32.108Z,1.30
2019-02-18T02:52:36.302Z,1.30
2019-02-18T02:57:41.293Z,1.30
2019-02-18T03:02:46.563Z,1.20
2019-02-18T03:07:51.863Z,1.20
2019-02-18T03:12:56.837Z,1.20
2019-02-18T03:18:01.779Z,1.10
2019-02-18T03:23:06.856Z,1.00
2019-02-18T03:28:18.112Z,1.00
2019-02-18T03:33:30.065Z,0.90
2019-02-18T03:38:35.503Z,1.00
2019-02-18T03:43:40.775Z,1.00
2019-02-18T03:48:45.631Z,1.00
2019-02-18T03:53:51.980Z,0.80
2019-02-18T03:58:57.317Z,0.80
2019-02-18T04:04:02.384Z,0.80
2019-02-18T04:09:07.559Z,0.70
2019-02-18T04:14:12.470Z,0.70
2019-02-18T04:19:17.365Z,0.60
2019-02-18T04:24:22.475Z,0.60
2019-02-18T04:29:27.900Z,0.60
2019-02-18T04:34:33.234Z,0.70
2019-02-18T04:39:38.391Z,0.60
2019-02-18T04:44:43.279Z,0.60
2019-02-18T04:49:48.447Z,0.50
2019-02-18T04:54:54.967Z,0.60
2019-02-18T05:00:00.425Z,0.60
2019-02-18T05:05:06.400Z,0.60
2019-02-18T05:10:11.915Z,0.40
2019-02-18T05:15:17.338Z,0.50
2019-02-18T05:20:22.493Z,0.50
2019-02-18T05:25:27.637Z,0.40
2019-02-18T05:30:32.719Z,0.50
2019-02-18T05:35:38.757Z,0.50
2019-02-18T05:40:44.191Z,0.40
2019-02-18T05:45:49.555Z,0.50
2019-02-18T05:50:55.189Z,0.40
2019-02-18T05:55:59.393Z,0.30
2019-02-18T06:01:03.831Z,0.20
2019-02-18T06:06:07.781Z,0.30
2019-02-18T06:11:12.266Z,0.30
2019-02-18T06:16:16.792Z,0.20
2019-02-18T06:21:21.087Z,0.10
2019-02-18T06:26:25.782Z,0.20
2019-02-18T06:31:29.291Z,0.00
2019-02-18T06:36:32.913Z,0.00
2019-02-18T06:41:37.261Z,0.00
2019-02-18T06:46:53.723Z,-0.10
2019-02-18T06:52:00.078Z,-0.10
2019-02-18T06:57:34.869Z,0.00
2019-02-18T07:02:47.193Z,0.00
2019-02-18T07:08:12.726Z,0.00
2019-02-18T07:13:18.101Z,0.00
2019-02-18T07:18:23.671Z,0.10
2019-02-18T07:23:29.355Z,0.10
2019-02-18T07:28:34.383Z,0.20
2019-02-18T07:33:39.485Z,0.30
2019-02-18T07:38:44.771Z,0.40
2019-02-18T07:43:50.323Z,0.50
2019-02-18T07:48:55.267Z,0.70
2019-02-18T07:54:01.466Z,0.80
2019-02-18T07:59:06.530Z,1.00
2019-02-18T08:04:11.459Z,1.20
2019-02-18T08:09:16.845Z,1.40
2019-02-18T08:14:21.827Z,1.70
2019-02-18T08:19:27.005Z,2.10
2019-02-18T08:24:33.087Z,2.40
2019-02-18T08:29:38.105Z,2.60
2019-02-18T08:34:43.205Z,2.70
2019-02-18T08:39:48.347Z,3.00
2019-02-18T08:44:53.603Z,3.30
2019-02-18T08:50:02.201Z,3.60
2019-02-18T08:55:10.163Z,3.70
2019-02-18T09:00:16.877Z,4.10
2019-02-18T09:05:22.199Z,4.30
2019-02-18T09:10:33.479Z,4.70
2019-02-18T09:15:35.338Z,4.70
2019-02-18T09:20:40.413Z,4.60
2019-02-18T09:25:50.331Z,4.90
2019-02-18T09:30:56.266Z,5.10
2019-02-18T09:36:01.484Z,5.40
2019-02-18T09:41:06.001Z,5.60
2019-02-18T09:46:11.389Z,5.90
2019-02-18T09:51:15.794Z,6.20
2019-02-18T09:56:20.163Z,6.50
2019-02-18T10:01:24.657Z,6.80
2019-02-18T10:06:29.866Z,7.20
2019-02-18T10:11:34.672Z,7.50
2019-02-18T10:16:39.236Z,7.70
2019-02-18T10:21:44.138Z,8.10
2019-02-18T10:26:50.660Z,8.30
2019-02-18T10:31:56.470Z,8.60
2019-02-18T10:37:01.728Z,8.80
2019-02-18T10:42:07.269Z,9.10
2019-02-18T10:47:12.679Z,9.30
2019-02-18T10:52:17.845Z,9.50
2019-02-18T10:57:24.478Z,9.80
2019-02-18T11:02:28.806Z,10.00
2019-02-18T11:07:33.224Z,10.30
2019-02-18T11:12:38.833Z,10.50
2019-02-18T11:17:44.222Z,10.60
2019-02-18T11:22:49.466Z,10.90
2019-02-18T11:27:54.829Z,11.10
2019-02-18T11:33:00.159Z,11.20
2019-02-18T11:38:05.591Z,11.50
2019-02-18T11:43:11.353Z,11.60
2019-02-18T11:48:16.546Z,11.80
2019-02-18T11:53:23.063Z,12.00
2019-02-18T11:58:27.544Z,12.10
2019-02-18T12:03:32.793Z,12.20
2019-02-18T12:08:37.688Z,12.30
2019-02-18T12:13:42.765Z,12.50
2019-02-18T12:18:48.264Z,12.70
2019-02-18T12:23:53.472Z,12.80
2019-02-18T12:28:58.829Z,12.90
2019-02-18T12:34:04.196Z,13.00
2019-02-18T12:39:13.826Z,13.10
2019-02-18T12:44:20.215Z,13.20
2019-02-18T12:49:25.549Z,13.30
2019-02-18T12:54:32.095Z,13.40
2019-02-18T12:59:37.415Z,13.50
2019-02-18T13:04:43.984Z,13.60
2019-02-18T13:09:49.476Z,13.70
2019-02-18T13:14:54.970Z,13.80
2019-02-18T13:20:00.861Z,13.80
2019-02-18T13:25:06.263Z,14.00
2019-02-18T13:30:13.135Z,14.10
2019-02-18T13:35:18.322Z,14.20
2019-02-18T13:40:23.365Z,14.30
2019-02-18T13:45:28.723Z,14.40
2019-02-18T13:50:34.101Z,14.40
2019-02-18T13:55:40.244Z,14.60
2019-02-18T14:00:58.772Z,14.70
2019-02-18T14:06:04.593Z,14.70
2019-02-18T14:11:09.612Z,14.80
2019-02-18T14:16:14.477Z,14.80
2019-02-18T14:21:18.435Z,15.00
2019-02-18T14:26:22.395Z,15.10
2019-02-18T14:31:26.479Z,15.10
2019-02-18T14:36:33.216Z,15.20
2019-02-18T14:41:37.806Z,15.20
2019-02-18T14:46:42.037Z,15.20
2019-02-18T14:51:47.137Z,15.20
2019-02-18T14:56:51.666Z,15.30
2019-02-18T15:01:56.685Z,15.30
2019-02-18T15:07:01.056Z,15.40
2019-02-18T15:12:06.072Z,15.40
2019-02-18T15:17:11.744Z,15.50
2019-02-18T15:22:17.427Z,15.50
2019-02-18T15:27:22.287Z,15.40
2019-02-18T15:32:27.621Z,15.40
2019-02-18T15:37:33.376Z,15.40
2019-02-18T15:42:42.350Z,15.40
2019-02-18T15:47:45.891Z,15.30
2019-02-18T15:52:51.558Z,15.20
2019-02-18T15:57:58.081Z,15.20
2019-02-18T16:03:03.793Z,15.10
2019-02-18T16:08:09.275Z,14.90
2019-02-18T16:13:15.278Z,14.80
2019-02-18T16:18:21.611Z,14.60
2019-02-18T16:23:27.102Z,14.10
2019-02-18T16:28:33.121Z,14.00
2019-02-18T16:33:38.568Z,13.70
2019-02-18T16:38:44.290Z,13.40
2019-02-18T16:43:51.347Z,13.10
2019-02-18T16:48:57.125Z,12.60
2019-02-18T16:54:02.959Z,12.40
2019-02-18T16:59:10.477Z,12.20
2019-02-18T17:04:16.175Z,11.90
2019-02-18T17:09:21.497Z,11.70
2019-02-18T17:14:27.019Z,11.40
2019-02-18T17:19:32.279Z,11.30
2019-02-18T17:24:38.897Z,10.90
2019-02-18T17:29:46.957Z,10.60
2019-02-18T17:34:53.051Z,10.40
2019-02-18T17:39:58.041Z,10.40
2019-02-18T17:45:03.349Z,10.20
2019-02-18T17:50:10.291Z,9.90
2019-02-18T17:55:15.507Z,9.80
2019-02-18T18:00:23.983Z,9.40
2019-02-18T18:05:30.919Z,9.20
2019-02-18T18:10:36.561Z,8.90
2019-02-18T18:15:40.209Z,8.70
2019-02-18T18:20:43.940Z,8.70
2019-02-18T18:25:47.547Z,8.30
2019-02-18T18:30:51.377Z,8.00
2019-02-18T18:35:55.054Z,7.80
2019-02-18T18:40:58.865Z,7.90
2019-02-18T18:46:04.381Z,7.90
2019-02-18T18:51:09.633Z,7.70
2019-02-18T18:56:14.754Z,7.60
2019-02-18T19:01:19.027Z,7.60
2019-02-18T19:06:23.309Z,7.30
2019-02-18T19:11:27.560Z,7.10
2019-02-18T19:16:31.957Z,7.00
2019-02-18T19:21:36.707Z,6.90
2019-02-18T19:26:42.259Z,7.00
2019-02-18T19:31:46.529Z,6.90
2019-02-18T19:36:50.774Z,6.70
2019-02-18T19:41:54.961Z,6.50
2019-02-18T19:47:00.069Z,6.60
2019-02-18T19:52:05.442Z,6.30
2019-02-18T19:57:12.991Z,6.30
2019-02-18T20:02:17.301Z,6.20
2019-02-18T20:07:22.551Z,6.20
2019-02-18T20:12:27.783Z,6.10
2019-02-18T20:17:33.275Z,6.00
2019-02-18T20:22:38.622Z,5.90
2019-02-18T20:27:43.642Z,5.90
2019-02-18T20:32:48.760Z,5.90
2019-02-18T20:37:54.380Z,5.80
2019-02-18T20:42:59.745Z,5.70
2019-02-18T20:48:05.356Z,5.60
2019-02-18T20:53:11.425Z,5.50
2019-02-18T20:58:16.651Z,5.50
2019-02-18T21:03:21.152Z,5.30
2019-02-18T21:08:26.504Z,5.30
2019-02-18T21:13:31.639Z,5.20
2019-02-18T21:18:38.175Z,5.10
2019-02-18T21:23:43.467Z,5.10
2019-02-18T21:28:49.344Z,5.40
2019-02-18T21:33:54.783Z,5.40
2019-02-18T21:39:00.014Z,5.60
2019-02-18T21:44:05.291Z,5.60
2019-02-18T21:49:10.427Z,5.60
2019-02-18T21:54:15.719Z,5.70
2019-02-18T21:59:21.031Z,5.70
2019-02-18T22:04:27.877Z,5.60
2019-02-18T22:09:32.961Z,5.80
2019-02-18T22:14:38.073Z,6.00
2019-02-18T22:19:43.292Z,6.20
2019-02-18T22:24:48.709Z,6.20
2019-02-18T22:29:53.960Z,6.40
2019-02-18T22:34:59.107Z,6.40
2019-02-18T22:40:04.829Z,6.50
2019-02-18T22:45:09.874Z,6.60
2019-02-18T22:50:14.965Z,6.70
2019-02-18T22:55:19.967Z,6.80
2019-02-18T23:01:13.759Z,6.80
2019-02-18T23:06:18.317Z,6.80
2019-02-18T23:11:23.431Z,6.90
2019-02-18T23:16:27.618Z,7.00
2019-02-18T23:21:34.615Z,7.10
2019-02-18T23:26:38.053Z,7.10
2019-02-18T23:31:42.513Z,7.20
2019-02-18T23:36:46.899Z,7.30
2019-02-18T23:41:50.881Z,7.30
2019-02-18T23:46:55.297Z,7.30
2019-02-18T23:52:00.002Z,7.40
2019-02-18T23:57:04.217Z,7.40
